createdAt,value
2018-11-07T00:00:06.728Z,11.99
2018-11-07T00:11:08.720Z,11.89
2018-11-07T00:22:11.352Z,11.90
2018-11-07T00:33:13.943Z,11.89
2018-11-07T00:44:14.579Z,11.90
2018-11-07T00:55:16.920Z,11.90
2018-11-07T01:06:18.910Z,11.90
2018-11-07T01:17:21.303Z,11.90
2018-11-07T01:28:24.170Z,11.80
2018-11-07T01:39:26.492Z,11.80
2018-11-07T01:50:29.675Z,11.80
2018-11-07T02:01:41.052Z,11.80
2018-11-07T02:12:43.643Z,11.70
2018-11-07T02:23:46.510Z,11.70
2018-11-07T02:34:48.722Z,11.70
2018-11-07T02:45:51.574Z,11.70
2018-11-07T02:56:54.572Z,11.70
2018-11-07T03:07:56.108Z,11.70
2018-11-07T03:18:59.158Z,11.70
2018-11-07T03:30:02.326Z,11.70
2018-11-07T03:41:05.428Z,11.70
2018-11-07T03:52:08.222Z,11.70
2018-11-07T04:03:10.606Z,11.70
2018-11-07T04:14:13.219Z,11.60
2018-11-07T04:25:16.531Z,11.50
2018-11-07T04:36:18.346Z,11.50
2018-11-07T04:47:22.254Z,11.50
2018-11-07T04:58:22.698Z,11.50
2018-11-07T05:09:25.920Z,11.50
2018-11-07T05:20:29.135Z,11.50
2018-11-07T05:31:32.947Z,11.50
2018-11-07T05:42:35.007Z,11.50
2018-11-07T05:53:36.200Z,11.50
2018-11-07T06:04:39.523Z,11.41
2018-11-07T06:15:41.775Z,11.50
2018-11-07T06:26:44.358Z,11.60
2018-11-07T06:37:46.456Z,11.60
2018-11-07T06:48:46.837Z,11.70
2018-11-07T06:59:47.529Z,11.70
2018-11-07T07:10:49.554Z,11.80
2018-11-07T07:21:49.100Z,11.90
2018-11-07T07:32:52.473Z,12.09
2018-11-07T07:43:55.648Z,12.09
2018-11-07T07:54:59.137Z,12.09
2018-11-07T08:06:01.159Z,12.19
2018-11-07T08:17:03.299Z,12.09
2018-11-07T08:28:01.532Z,12.19
2018-11-07T08:39:03.227Z,12.19
2018-11-07T08:50:06.456Z,12.09
2018-11-07T09:01:10.436Z,12.29
2018-11-07T09:12:12.171Z,12.58
2018-11-07T09:23:14.881Z,12.58
2018-11-07T09:34:17.046Z,12.97
2018-11-07T09:45:19.633Z,13.17
2018-11-07T09:56:21.171Z,13.56
2018-11-07T10:07:22.308Z,13.85
2018-11-07T10:18:24.067Z,13.85
2018-11-07T10:29:27.221Z,14.24
2018-11-07T10:40:29.298Z,13.95
2018-11-07T10:51:31.193Z,14.15
2018-11-07T11:02:33.067Z,13.75
2018-11-07T11:13:35.112Z,13.85
2018-11-07T11:24:37.079Z,13.85
2018-11-07T11:35:34.382Z,14.14
2018-11-07T11:46:35.980Z,14.63
2018-11-07T11:57:36.510Z,14.63
2018-11-07T12:08:37.215Z,14.24
2018-11-07T12:19:38.148Z,14.63
2018-11-07T12:30:36.489Z,15.22
2018-11-07T12:41:33.598Z,15.12
2018-11-07T12:52:34.310Z,14.63
2018-11-07T13:03:35.036Z,14.34
2018-11-07T13:14:35.892Z,14.05
2018-11-07T13:25:36.684Z,13.95
2018-11-07T13:36:37.994Z,14.05
2018-11-07T13:47:34.226Z,14.05
2018-11-07T13:58:14.814Z,13.95
2018-11-07T14:09:15.889Z,13.66
2018-11-07T14:20:17.791Z,13.65
2018-11-07T14:31:18.372Z,13.56
2018-11-07T14:42:20.113Z,13.36
2018-11-07T14:53:20.676Z,12.97
2018-11-07T15:04:22.233Z,12.78
2018-11-07T15:15:22.004Z,12.48
2018-11-07T15:26:21.856Z,12.19
2018-11-07T15:37:14.327Z,11.99
2018-11-07T15:48:04.409Z,11.60
2018-11-07T15:59:04.190Z,11.41
2018-11-07T16:10:07.632Z,11.60
2018-11-07T16:21:05.072Z,11.60
2018-11-07T16:32:05.912Z,11.50
2018-11-07T16:43:02.718Z,11.31
2018-11-07T16:54:03.033Z,11.11
2018-11-07T17:05:05.175Z,10.92
2018-11-07T17:16:05.877Z,10.72
2018-11-07T17:27:07.004Z,10.53
2018-11-07T17:38:08.431Z,10.72
2018-11-07T17:49:07.418Z,10.82
2018-11-07T18:00:05.385Z,11.01
2018-11-07T18:11:06.818Z,11.01
2018-11-07T18:22:08.527Z,10.72
2018-11-07T18:33:09.047Z,10.43
2018-11-07T18:44:10.471Z,10.23
2018-11-07T18:55:13.856Z,9.94
2018-11-07T19:06:14.380Z,9.74
2018-11-07T19:17:15.046Z,9.55
2018-11-07T19:28:16.089Z,9.35
2018-11-07T19:39:14.005Z,9.35
2018-11-07T19:50:12.197Z,9.35
2018-11-07T20:01:14.988Z,9.55
2018-11-07T20:12:15.595Z,9.65
2018-11-07T20:23:08.074Z,9.74
2018-11-07T20:34:02.493Z,9.84
2018-11-07T20:45:02.875Z,10.13
2018-11-07T20:56:03.882Z,10.13
2018-11-07T21:07:03.719Z,10.23
2018-11-07T21:18:00.238Z,10.33
2018-11-07T21:29:02.097Z,10.43
2018-11-07T21:39:58.621Z,10.43
2018-11-07T21:51:00.634Z,10.43
2018-11-07T22:01:58.839Z,10.43
2018-11-07T22:13:00.548Z,10.23
2018-11-07T22:24:02.289Z,10.23
2018-11-07T22:35:03.207Z,10.04
2018-11-07T22:46:05.572Z,10.04
2018-11-07T22:57:03.737Z,9.94
2018-11-07T23:08:04.987Z,9.94
2018-11-07T23:19:05.148Z,9.84
2018-11-07T23:30:06.129Z,9.84
2018-11-07T23:41:08.370Z,9.64
2018-11-07T23:52:10.767Z,9.64
